sensor_id;sensor_type;location;lat;lon;timestamp;temperature;humidity
66722;SHT31;53633;49.932;10.884;2023-11-22T00:01:10;5.13;75.61
66722;SHT31;53633;49.932;10.884;2023-11-22T00:03:37;5.10;75.62
66722;SHT31;53633;49.932;10.884;2023-11-22T00:06:04;5.07;75.87
66722;SHT31;53633;49.932;10.884;2023-11-22T00:08:31;5.10;75.79
66722;SHT31;53633;49.932;10.884;2023-11-22T00:10:58;5.19;76.06
66722;SHT31;53633;49.932;10.884;2023-11-22T00:13:24;5.16;75.94
66722;SHT31;53633;49.932;10.884;2023-11-22T00:15:51;5.19;76.24
66722;SHT31;53633;49.932;10.884;2023-11-22T00:18:19;5.11;76.61
66722;SHT31;53633;49.932;10.884;2023-11-22T00:20:46;5.01;76.78
66722;SHT31;53633;49.932;10.884;2023-11-22T00:23:13;4.89;77.23
66722;SHT31;53633;49.932;10.884;2023-11-22T00:25:40;4.84;77.78
66722;SHT31;53633;49.932;10.884;2023-11-22T00:28:06;4.77;77.77
66722;SHT31;53633;49.932;10.884;2023-11-22T00:30:33;4.82;77.83
66722;SHT31;53633;49.932;10.884;2023-11-22T00:33:00;4.72;77.68
66722;SHT31;53633;49.932;10.884;2023-11-22T00:35:28;4.82;77.78
66722;SHT31;53633;49.932;10.884;2023-11-22T00:37:55;4.84;77.89
66722;SHT31;53633;49.932;10.884;2023-11-22T00:40:21;4.86;77.70
66722;SHT31;53633;49.932;10.884;2023-11-22T00:42:48;4.86;77.57
66722;SHT31;53633;49.932;10.884;2023-11-22T00:45:15;4.97;77.66
66722;SHT31;53633;49.932;10.884;2023-11-22T00:47:41;5.06;77.78
66722;SHT31;53633;49.932;10.884;2023-11-22T00:50:09;5.13;77.78
66722;SHT31;53633;49.932;10.884;2023-11-22T00:52:37;5.16;77.14
66722;SHT31;53633;49.932;10.884;2023-11-22T00:55:04;4.83;76.62
66722;SHT31;53633;49.932;10.884;2023-11-22T00:57:31;4.68;77.14
66722;SHT31;53633;49.932;10.884;2023-11-22T00:59:58;4.68;77.45
66722;SHT31;53633;49.932;10.884;2023-11-22T01:02:24;4.76;77.35
66722;SHT31;53633;49.932;10.884;2023-11-22T01:04:51;4.69;77.40
66722;SHT31;53633;49.932;10.884;2023-11-22T01:07:18;4.73;77.51
66722;SHT31;53633;49.932;10.884;2023-11-22T01:09:46;4.73;77.43
66722;SHT31;53633;49.932;10.884;2023-11-22T01:12:13;4.71;77.16
66722;SHT31;53633;49.932;10.884;2023-11-22T01:14:40;4.75;77.21
66722;SHT31;53633;49.932;10.884;2023-11-22T01:17:07;4.69;77.11
66722;SHT31;53633;49.932;10.884;2023-11-22T01:19:33;4.69;77.10
66722;SHT31;53633;49.932;10.884;2023-11-22T01:22:00;4.65;77.18
66722;SHT31;53633;49.932;10.884;2023-11-22T01:24:27;4.51;77.43
66722;SHT31;53633;49.932;10.884;2023-11-22T01:26:55;4.54;77.70
66722;SHT31;53633;49.932;10.884;2023-11-22T01:29:21;4.30;77.48
66722;SHT31;53633;49.932;10.884;2023-11-22T01:31:48;4.38;77.78
66722;SHT31;53633;49.932;10.884;2023-11-22T01:34:15;4.45;77.92
66722;SHT31;53633;49.932;10.884;2023-11-22T01:36:42;4.59;77.87
66722;SHT31;53633;49.932;10.884;2023-11-22T01:39:10;4.63;77.43
66722;SHT31;53633;49.932;10.884;2023-11-22T01:41:36;4.37;75.97
66722;SHT31;53633;49.932;10.884;2023-11-22T01:44:05;4.37;76.15
66722;SHT31;53633;49.932;10.884;2023-11-22T01:46:31;4.31;76.22
66722;SHT31;53633;49.932;10.884;2023-11-22T01:48:58;4.24;75.87
66722;SHT31;53633;49.932;10.884;2023-11-22T01:51:26;4.10;75.50
66722;SHT31;53633;49.932;10.884;2023-11-22T01:53:56;4.03;76.26
66722;SHT31;53633;49.932;10.884;2023-11-22T01:56:25;4.14;76.06
66722;SHT31;53633;49.932;10.884;2023-11-22T01:58:53;4.13;75.77
66722;SHT31;53633;49.932;10.884;2023-11-22T02:01:22;4.14;75.79
66722;SHT31;53633;49.932;10.884;2023-11-22T02:03:49;4.04;75.35
66722;SHT31;53633;49.932;10.884;2023-11-22T02:06:16;4.10;75.48
66722;SHT31;53633;49.932;10.884;2023-11-22T02:08:43;4.13;75.46
66722;SHT31;53633;49.932;10.884;2023-11-22T02:11:09;4.16;75.92
66722;SHT31;53633;49.932;10.884;2023-11-22T02:13:36;4.20;75.69
66722;SHT31;53633;49.932;10.884;2023-11-22T02:16:03;4.28;75.50
66722;SHT31;53633;49.932;10.884;2023-11-22T02:18:31;4.30;75.69
66722;SHT31;53633;49.932;10.884;2023-11-22T02:20:58;4.22;75.71
66722;SHT31;53633;49.932;10.884;2023-11-22T02:23:26;4.06;76.23
66722;SHT31;53633;49.932;10.884;2023-11-22T02:25:53;4.07;76.56
66722;SHT31;53633;49.932;10.884;2023-11-22T02:28:20;4.16;76.39
66722;SHT31;53633;49.932;10.884;2023-11-22T02:30:47;4.13;76.34
66722;SHT31;53633;49.932;10.884;2023-11-22T02:33:14;4.20;76.44
66722;SHT31;53633;49.932;10.884;2023-11-22T02:35:41;4.18;76.35
66722;SHT31;53633;49.932;10.884;2023-11-22T02:38:07;4.03;76.13
66722;SHT31;53633;49.932;10.884;2023-11-22T02:40:35;3.97;76.32
66722;SHT31;53633;49.932;10.884;2023-11-22T02:43:02;3.89;76.92
66722;SHT31;53633;49.932;10.884;2023-11-22T02:45:29;3.83;76.97
66722;SHT31;53633;49.932;10.884;2023-11-22T02:47:55;3.86;76.75
66722;SHT31;53633;49.932;10.884;2023-11-22T02:50:22;3.98;76.89
66722;SHT31;53633;49.932;10.884;2023-11-22T02:52:49;3.90;76.68
66722;SHT31;53633;49.932;10.884;2023-11-22T02:55:16;4.07;76.90
66722;SHT31;53633;49.932;10.884;2023-11-22T02:57:44;4.04;76.35
66722;SHT31;53633;49.932;10.884;2023-11-22T03:00:11;4.03;76.74
66722;SHT31;53633;49.932;10.884;2023-11-22T03:02:38;4.00;77.15
66722;SHT31;53633;49.932;10.884;2023-11-22T03:05:06;3.97;77.37
66722;SHT31;53633;49.932;10.884;2023-11-22T03:07:33;3.89;77.42
66722;SHT31;53633;49.932;10.884;2023-11-22T03:10:00;3.96;77.73
66722;SHT31;53633;49.932;10.884;2023-11-22T03:12:27;3.90;77.75
66722;SHT31;53633;49.932;10.884;2023-11-22T03:14:55;3.87;77.96
66722;SHT31;53633;49.932;10.884;2023-11-22T03:17:21;3.86;78.10
66722;SHT31;53633;49.932;10.884;2023-11-22T03:19:48;3.85;78.36
66722;SHT31;53633;49.932;10.884;2023-11-22T03:22:15;3.85;78.23
66722;SHT31;53633;49.932;10.884;2023-11-22T03:24:41;3.76;78.41
66722;SHT31;53633;49.932;10.884;2023-11-22T03:27:08;3.83;79.07
66722;SHT31;53633;49.932;10.884;2023-11-22T03:29:35;3.87;78.69
66722;SHT31;53633;49.932;10.884;2023-11-22T03:32:03;3.79;78.63
66722;SHT31;53633;49.932;10.884;2023-11-22T03:34:30;3.73;78.81
66722;SHT31;53633;49.932;10.884;2023-11-22T03:36:57;3.62;78.90
66722;SHT31;53633;49.932;10.884;2023-11-22T03:39:24;3.54;79.02
66722;SHT31;53633;49.932;10.884;2023-11-22T03:41:50;3.54;79.31
66722;SHT31;53633;49.932;10.884;2023-11-22T03:44:17;3.59;79.44
66722;SHT31;53633;49.932;10.884;2023-11-22T03:46:44;3.70;79.12
66722;SHT31;53633;49.932;10.884;2023-11-22T03:49:12;3.59;79.23
66722;SHT31;53633;49.932;10.884;2023-11-22T03:51:39;3.48;79.53
66722;SHT31;53633;49.932;10.884;2023-11-22T03:54:06;3.69;79.43
66722;SHT31;53633;49.932;10.884;2023-11-22T03:56:32;3.68;79.00
66722;SHT31;53633;49.932;10.884;2023-11-22T03:58:59;3.48;79.03
66722;SHT31;53633;49.932;10.884;2023-11-22T04:01:26;3.48;79.43
66722;SHT31;53633;49.932;10.884;2023-11-22T04:03:53;3.46;79.31
66722;SHT31;53633;49.932;10.884;2023-11-22T04:06:21;3.41;79.32
66722;SHT31;53633;49.932;10.884;2023-11-22T04:08:47;3.34;79.58
66722;SHT31;53633;49.932;10.884;2023-11-22T04:11:14;3.43;79.85
66722;SHT31;53633;49.932;10.884;2023-11-22T04:13:41;3.39;79.40
66722;SHT31;53633;49.932;10.884;2023-11-22T04:16:22;3.41;79.43
66722;SHT31;53633;49.932;10.884;2023-11-22T04:18:49;3.48;79.53
66722;SHT31;53633;49.932;10.884;2023-11-22T04:21:16;3.54;79.42
66722;SHT31;53633;49.932;10.884;2023-11-22T04:23:44;3.58;78.90
66722;SHT31;53633;49.932;10.884;2023-11-22T04:26:11;3.59;78.88
66722;SHT31;53633;49.932;10.884;2023-11-22T04:28:38;3.69;78.70
66722;SHT31;53633;49.932;10.884;2023-11-22T04:31:05;3.68;78.01
66722;SHT31;53633;49.932;10.884;2023-11-22T04:33:31;3.42;77.89
66722;SHT31;53633;49.932;10.884;2023-11-22T04:35:58;3.54;77.92
66722;SHT31;53633;49.932;10.884;2023-11-22T04:38:25;3.49;77.72
66722;SHT31;53633;49.932;10.884;2023-11-22T04:40:53;3.49;77.72
66722;SHT31;53633;49.932;10.884;2023-11-22T04:43:20;3.45;77.41
66722;SHT31;53633;49.932;10.884;2023-11-22T04:45:46;3.43;77.47
66722;SHT31;53633;49.932;10.884;2023-11-22T04:48:13;3.65;77.51
66722;SHT31;53633;49.932;10.884;2023-11-22T04:50:40;3.75;77.11
66722;SHT31;53633;49.932;10.884;2023-11-22T04:53:06;3.78;77.17
66722;SHT31;53633;49.932;10.884;2023-11-22T04:55:33;3.80;77.05
66722;SHT31;53633;49.932;10.884;2023-11-22T04:58:01;3.56;77.17
66722;SHT31;53633;49.932;10.884;2023-11-22T05:00:28;3.42;77.62
66722;SHT31;53633;49.932;10.884;2023-11-22T05:02:54;3.27;77.89
66722;SHT31;53633;49.932;10.884;2023-11-22T05:05:21;3.27;78.03
66722;SHT31;53633;49.932;10.884;2023-11-22T05:07:48;3.34;78.35
66722;SHT31;53633;49.932;10.884;2023-11-22T05:10:15;3.35;77.91
66722;SHT31;53633;49.932;10.884;2023-11-22T05:12:41;3.28;78.26
66722;SHT31;53633;49.932;10.884;2023-11-22T05:15:10;3.32;78.49
66722;SHT31;53633;49.932;10.884;2023-11-22T05:17:36;3.38;78.16
66722;SHT31;53633;49.932;10.884;2023-11-22T05:20:04;3.39;78.08
66722;SHT31;53633;49.932;10.884;2023-11-22T05:22:31;3.39;78.34
66722;SHT31;53633;49.932;10.884;2023-11-22T05:24:58;3.32;78.47
66722;SHT31;53633;49.932;10.884;2023-11-22T05:27:24;3.28;78.42
66722;SHT31;53633;49.932;10.884;2023-11-22T05:29:51;3.20;78.46
66722;SHT31;53633;49.932;10.884;2023-11-22T05:32:22;3.30;78.64
66722;SHT31;53633;49.932;10.884;2023-11-22T05:34:49;3.18;78.48
66722;SHT31;53633;49.932;10.884;2023-11-22T05:37:16;3.10;78.88
66722;SHT31;53633;49.932;10.884;2023-11-22T05:39:42;3.17;78.87
66722;SHT31;53633;49.932;10.884;2023-11-22T05:42:09;3.21;79.20
66722;SHT31;53633;49.932;10.884;2023-11-22T05:44:36;3.17;79.47
66722;SHT31;53633;49.932;10.884;2023-11-22T05:47:03;3.05;79.88
66722;SHT31;53633;49.932;10.884;2023-11-22T05:49:31;3.01;80.20
66722;SHT31;53633;49.932;10.884;2023-11-22T05:51:57;2.89;80.43
66722;SHT31;53633;49.932;10.884;2023-11-22T05:54:24;3.00;80.39
66722;SHT31;53633;49.932;10.884;2023-11-22T05:56:51;2.93;80.78
66722;SHT31;53633;49.932;10.884;2023-11-22T05:59:17;2.75;81.10
66722;SHT31;53633;49.932;10.884;2023-11-22T06:01:44;2.80;81.37
66722;SHT31;53633;49.932;10.884;2023-11-22T06:04:11;2.77;81.31
66722;SHT31;53633;49.932;10.884;2023-11-22T06:06:39;2.73;81.23
66722;SHT31;53633;49.932;10.884;2023-11-22T06:09:06;2.83;81.25
66722;SHT31;53633;49.932;10.884;2023-11-22T06:11:32;2.76;81.26
66722;SHT31;53633;49.932;10.884;2023-11-22T06:13:59;2.65;81.37
66722;SHT31;53633;49.932;10.884;2023-11-22T06:16:26;2.55;81.79
66722;SHT31;53633;49.932;10.884;2023-11-22T06:18:53;2.57;81.72
66722;SHT31;53633;49.932;10.884;2023-11-22T06:21:19;2.45;81.76
66722;SHT31;53633;49.932;10.884;2023-11-22T06:23:47;2.44;81.73
66722;SHT31;53633;49.932;10.884;2023-11-22T06:26:14;2.57;81.44
66722;SHT31;53633;49.932;10.884;2023-11-22T06:28:40;2.49;81.54
66722;SHT31;53633;49.932;10.884;2023-11-22T06:31:07;2.59;81.48
66722;SHT31;53633;49.932;10.884;2023-11-22T06:33:34;2.75;81.34
66722;SHT31;53633;49.932;10.884;2023-11-22T06:36:01;2.77;80.66
66722;SHT31;53633;49.932;10.884;2023-11-22T06:38:27;2.69;80.49
66722;SHT31;53633;49.932;10.884;2023-11-22T06:40:56;2.73;80.20
66722;SHT31;53633;49.932;10.884;2023-11-22T06:43:22;2.71;80.27
66722;SHT31;53633;49.932;10.884;2023-11-22T06:45:50;2.66;80.40
66722;SHT31;53633;49.932;10.884;2023-11-22T06:48:17;2.72;80.33
66722;SHT31;53633;49.932;10.884;2023-11-22T06:50:43;2.72;80.09
66722;SHT31;53633;49.932;10.884;2023-11-22T06:53:10;2.66;79.91
66722;SHT31;53633;49.932;10.884;2023-11-22T06:55:37;2.60;79.74
66722;SHT31;53633;49.932;10.884;2023-11-22T06:58:05;2.65;79.55
66722;SHT31;53633;49.932;10.884;2023-11-22T07:00:31;2.55;79.04
66722;SHT31;53633;49.932;10.884;2023-11-22T07:02:58;2.59;78.98
66722;SHT31;53633;49.932;10.884;2023-11-22T07:05:25;2.65;79.17
66722;SHT31;53633;49.932;10.884;2023-11-22T07:07:52;2.69;78.62
66722;SHT31;53633;49.932;10.884;2023-11-22T07:10:18;2.72;78.18
66722;SHT31;53633;49.932;10.884;2023-11-22T07:12:45;2.90;78.10
66722;SHT31;53633;49.932;10.884;2023-11-22T07:15:13;2.92;77.59
66722;SHT31;53633;49.932;10.884;2023-11-22T07:17:40;3.11;77.12
66722;SHT31;53633;49.932;10.884;2023-11-22T07:20:07;3.04;76.51
66722;SHT31;53633;49.932;10.884;2023-11-22T07:22:34;2.83;76.44
66722;SHT31;53633;49.932;10.884;2023-11-22T07:25:01;2.79;76.10
66722;SHT31;53633;49.932;10.884;2023-11-22T07:27:28;2.72;76.40
66722;SHT31;53633;49.932;10.884;2023-11-22T07:29:54;2.72;76.00
66722;SHT31;53633;49.932;10.884;2023-11-22T07:32:22;2.79;76.15
66722;SHT31;53633;49.932;10.884;2023-11-22T07:34:49;2.79;75.71
66722;SHT31;53633;49.932;10.884;2023-11-22T07:37:16;2.72;76.00
66722;SHT31;53633;49.932;10.884;2023-11-22T07:39:42;2.62;75.95
66722;SHT31;53633;49.932;10.884;2023-11-22T07:42:09;2.53;76.00
66722;SHT31;53633;49.932;10.884;2023-11-22T07:44:36;2.52;76.24
66722;SHT31;53633;49.932;10.884;2023-11-22T07:47:03;2.48;76.08
66722;SHT31;53633;49.932;10.884;2023-11-22T07:49:31;2.49;76.25
66722;SHT31;53633;49.932;10.884;2023-11-22T07:51:58;2.49;75.92
66722;SHT31;53633;49.932;10.884;2023-11-22T07:54:24;2.48;75.81
66722;SHT31;53633;49.932;10.884;2023-11-22T07:56:51;2.63;75.63
66722;SHT31;53633;49.932;10.884;2023-11-22T07:59:18;2.59;75.66
66722;SHT31;53633;49.932;10.884;2023-11-22T08:01:45;2.55;75.37
66722;SHT31;53633;49.932;10.884;2023-11-22T08:04:13;2.60;74.82
66722;SHT31;53633;49.932;10.884;2023-11-22T08:06:41;2.75;74.66
66722;SHT31;53633;49.932;10.884;2023-11-22T08:09:08;2.77;74.60
66722;SHT31;53633;49.932;10.884;2023-11-22T08:11:34;2.75;74.27
66722;SHT31;53633;49.932;10.884;2023-11-22T08:14:01;2.77;74.89
66722;SHT31;53633;49.932;10.884;2023-11-22T08:16:28;3.01;74.21
66722;SHT31;53633;49.932;10.884;2023-11-22T08:18:55;3.49;73.15
66722;SHT31;53633;49.932;10.884;2023-11-22T08:21:22;3.43;72.95
66722;SHT31;53633;49.932;10.884;2023-11-22T08:23:50;3.35;73.21
66722;SHT31;53633;49.932;10.884;2023-11-22T08:26:17;3.15;72.90
66722;SHT31;53633;49.932;10.884;2023-11-22T08:28:44;3.05;73.44
66722;SHT31;53633;49.932;10.884;2023-11-22T08:31:11;3.10;73.55
66722;SHT31;53633;49.932;10.884;2023-11-22T08:33:38;2.94;73.46
66722;SHT31;53633;49.932;10.884;2023-11-22T08:36:06;3.01;73.88
66722;SHT31;53633;49.932;10.884;2023-11-22T08:38:33;3.03;73.49
66722;SHT31;53633;49.932;10.884;2023-11-22T08:41:02;3.03;73.71
66722;SHT31;53633;49.932;10.884;2023-11-22T08:43:29;3.05;73.38
66722;SHT31;53633;49.932;10.884;2023-11-22T08:45:56;2.99;73.86
66722;SHT31;53633;49.932;10.884;2023-11-22T08:48:37;3.04;74.07
66722;SHT31;53633;49.932;10.884;2023-11-22T08:51:07;2.90;74.42
66722;SHT31;53633;49.932;10.884;2023-11-22T08:53:34;2.77;74.03
66722;SHT31;53633;49.932;10.884;2023-11-22T08:56:02;2.66;74.28
66722;SHT31;53633;49.932;10.884;2023-11-22T08:58:29;2.60;74.61
66722;SHT31;53633;49.932;10.884;2023-11-22T09:00:56;2.67;74.97
66722;SHT31;53633;49.932;10.884;2023-11-22T09:03:23;2.65;75.06
66722;SHT31;53633;49.932;10.884;2023-11-22T09:05:50;2.77;74.92
66722;SHT31;53633;49.932;10.884;2023-11-22T09:08:16;2.76;74.30
66722;SHT31;53633;49.932;10.884;2023-11-22T09:10:52;2.67;74.46
66722;SHT31;53633;49.932;10.884;2023-11-22T09:13:20;2.65;74.05
66722;SHT31;53633;49.932;10.884;2023-11-22T09:15:47;2.39;73.74
66722;SHT31;53633;49.932;10.884;2023-11-22T09:18:14;2.49;74.23
66722;SHT31;53633;49.932;10.884;2023-11-22T09:20:41;2.77;74.09
66722;SHT31;53633;49.932;10.884;2023-11-22T09:23:08;2.89;73.61
66722;SHT31;53633;49.932;10.884;2023-11-22T09:25:35;3.13;73.41
66722;SHT31;53633;49.932;10.884;2023-11-22T09:28:01;3.24;73.10
66722;SHT31;53633;49.932;10.884;2023-11-22T09:30:31;3.45;73.13
66722;SHT31;53633;49.932;10.884;2023-11-22T09:32:59;3.62;72.15
66722;SHT31;53633;49.932;10.884;2023-11-22T09:35:25;3.69;71.06
66722;SHT31;53633;49.932;10.884;2023-11-22T09:37:52;3.94;71.49
66722;SHT31;53633;49.932;10.884;2023-11-22T09:40:19;3.90;71.89
66722;SHT31;53633;49.932;10.884;2023-11-22T09:42:47;3.72;71.68
66722;SHT31;53633;49.932;10.884;2023-11-22T09:45:14;3.62;72.18
66722;SHT31;53633;49.932;10.884;2023-11-22T09:47:42;3.51;71.58
66722;SHT31;53633;49.932;10.884;2023-11-22T09:50:10;3.45;71.36
66722;SHT31;53633;49.932;10.884;2023-11-22T09:52:39;3.35;70.43
66722;SHT31;53633;49.932;10.884;2023-11-22T09:55:08;3.13;70.50
66722;SHT31;53633;49.932;10.884;2023-11-22T09:57:37;2.93;71.03
66722;SHT31;53633;49.932;10.884;2023-11-22T10:00:07;2.87;71.51
66722;SHT31;53633;49.932;10.884;2023-11-22T10:02:35;2.93;70.64
66722;SHT31;53633;49.932;10.884;2023-11-22T10:05:04;2.76;69.39
66722;SHT31;53633;49.932;10.884;2023-11-22T10:07:31;2.75;69.09
66722;SHT31;53633;49.932;10.884;2023-11-22T10:09:57;2.82;70.15
66722;SHT31;53633;49.932;10.884;2023-11-22T10:12:24;2.72;69.13
66722;SHT31;53633;49.932;10.884;2023-11-22T10:14:51;2.76;69.04
66722;SHT31;53633;49.932;10.884;2023-11-22T10:17:17;2.92;69.29
66722;SHT31;53633;49.932;10.884;2023-11-22T10:19:44;3.10;69.65
66722;SHT31;53633;49.932;10.884;2023-11-22T10:22:12;3.20;68.34
66722;SHT31;53633;49.932;10.884;2023-11-22T10:24:39;3.36;68.14
66722;SHT31;53633;49.932;10.884;2023-11-22T10:27:05;3.48;67.95
66722;SHT31;53633;49.932;10.884;2023-11-22T10:29:32;3.65;67.03
66722;SHT31;53633;49.932;10.884;2023-11-22T10:31:59;3.86;67.08
66722;SHT31;53633;49.932;10.884;2023-11-22T10:34:26;4.00;66.99
66722;SHT31;53633;49.932;10.884;2023-11-22T10:36:55;4.08;66.93
66722;SHT31;53633;49.932;10.884;2023-11-22T10:39:23;4.01;66.62
66722;SHT31;53633;49.932;10.884;2023-11-22T10:41:50;4.07;66.17
66722;SHT31;53633;49.932;10.884;2023-11-22T10:44:19;4.07;65.74
66722;SHT31;53633;49.932;10.884;2023-11-22T10:46:47;4.17;65.46
66722;SHT31;53633;49.932;10.884;2023-11-22T10:49:13;4.18;65.36
66722;SHT31;53633;49.932;10.884;2023-11-22T10:51:44;4.27;65.60
66722;SHT31;53633;49.932;10.884;2023-11-22T10:54:13;4.24;65.28
66722;SHT31;53633;49.932;10.884;2023-11-22T10:56:43;4.30;65.30
66722;SHT31;53633;49.932;10.884;2023-11-22T10:59:13;4.24;65.63
66722;SHT31;53633;49.932;10.884;2023-11-22T11:01:44;4.18;65.37
66722;SHT31;53633;49.932;10.884;2023-11-22T11:04:18;4.13;65.26
66722;SHT31;53633;49.932;10.884;2023-11-22T11:06:51;4.22;66.07
66722;SHT31;53633;49.932;10.884;2023-11-22T11:09:19;4.18;65.60
66722;SHT31;53633;49.932;10.884;2023-11-22T11:11:47;4.24;66.05
66722;SHT31;53633;49.932;10.884;2023-11-22T11:14:15;4.30;66.37
66722;SHT31;53633;49.932;10.884;2023-11-22T11:16:42;4.30;65.88
66722;SHT31;53633;49.932;10.884;2023-11-22T11:19:09;4.34;65.23
66722;SHT31;53633;49.932;10.884;2023-11-22T11:21:36;4.08;66.32
66722;SHT31;53633;49.932;10.884;2023-11-22T11:24:03;4.08;67.12
66722;SHT31;53633;49.932;10.884;2023-11-22T11:26:32;4.25;67.70
66722;SHT31;53633;49.932;10.884;2023-11-22T11:29:00;4.37;66.89
66722;SHT31;53633;49.932;10.884;2023-11-22T11:31:31;4.45;66.64
66722;SHT31;53633;49.932;10.884;2023-11-22T11:33:58;4.63;66.82
66722;SHT31;53633;49.932;10.884;2023-11-22T11:36:26;4.66;65.78
66722;SHT31;53633;49.932;10.884;2023-11-22T11:38:54;4.77;65.71
66722;SHT31;53633;49.932;10.884;2023-11-22T11:41:25;4.73;64.90
66722;SHT31;53633;49.932;10.884;2023-11-22T11:43:52;4.86;64.95
66722;SHT31;53633;49.932;10.884;2023-11-22T11:46:20;4.65;65.84
66722;SHT31;53633;49.932;10.884;2023-11-22T11:48:48;4.48;66.09
66722;SHT31;53633;49.932;10.884;2023-11-22T11:51:15;4.76;66.48
66722;SHT31;53633;49.932;10.884;2023-11-22T11:53:42;4.83;66.19
66722;SHT31;53633;49.932;10.884;2023-11-22T11:56:09;5.01;65.34
66722;SHT31;53633;49.932;10.884;2023-11-22T11:58:36;5.07;65.05
66722;SHT31;53633;49.932;10.884;2023-11-22T12:01:04;5.07;65.24
66722;SHT31;53633;49.932;10.884;2023-11-22T12:03:32;4.99;64.91
66722;SHT31;53633;49.932;10.884;2023-11-22T12:05:59;4.90;65.04
66722;SHT31;53633;49.932;10.884;2023-11-22T12:08:26;5.10;65.20
66722;SHT31;53633;49.932;10.884;2023-11-22T12:10:55;5.17;64.15
66722;SHT31;53633;49.932;10.884;2023-11-22T12:13:22;4.97;64.50
66722;SHT31;53633;49.932;10.884;2023-11-22T12:15:50;5.11;65.49
66722;SHT31;53633;49.932;10.884;2023-11-22T12:18:16;5.19;65.41
66722;SHT31;53633;49.932;10.884;2023-11-22T12:20:54;5.24;65.04
66722;SHT31;53633;49.932;10.884;2023-11-22T12:23:23;5.21;64.80
66722;SHT31;53633;49.932;10.884;2023-11-22T12:25:54;5.13;64.42
66722;SHT31;53633;49.932;10.884;2023-11-22T12:28:23;5.17;65.27
66722;SHT31;53633;49.932;10.884;2023-11-22T12:30:52;5.21;65.58
66722;SHT31;53633;49.932;10.884;2023-11-22T12:33:19;5.20;65.24
66722;SHT31;53633;49.932;10.884;2023-11-22T12:35:48;5.10;65.39
66722;SHT31;53633;49.932;10.884;2023-11-22T12:38:16;5.00;65.55
66722;SHT31;53633;49.932;10.884;2023-11-22T12:40:45;4.93;65.92
66722;SHT31;53633;49.932;10.884;2023-11-22T12:43:13;4.65;66.46
66722;SHT31;53633;49.932;10.884;2023-11-22T12:45:40;4.45;66.75
66722;SHT31;53633;49.932;10.884;2023-11-22T12:48:22;4.45;66.48
66722;SHT31;53633;49.932;10.884;2023-11-22T12:50:51;4.73;66.46
66722;SHT31;53633;49.932;10.884;2023-11-22T12:53:18;4.83;66.50
66722;SHT31;53633;49.932;10.884;2023-11-22T12:55:46;4.82;66.76
66722;SHT31;53633;49.932;10.884;2023-11-22T12:58:13;5.01;66.62
66722;SHT31;53633;49.932;10.884;2023-11-22T13:00:40;5.01;65.97
66722;SHT31;53633;49.932;10.884;2023-11-22T13:03:07;5.20;65.99
66722;SHT31;53633;49.932;10.884;2023-11-22T13:05:34;5.17;65.63
66722;SHT31;53633;49.932;10.884;2023-11-22T13:08:02;5.26;65.66
66722;SHT31;53633;49.932;10.884;2023-11-22T13:10:30;5.30;65.60
66722;SHT31;53633;49.932;10.884;2023-11-22T13:12:57;5.26;65.06
66722;SHT31;53633;49.932;10.884;2023-11-22T13:15:24;5.31;65.11
66722;SHT31;53633;49.932;10.884;2023-11-22T13:17:51;5.26;64.79
66722;SHT31;53633;49.932;10.884;2023-11-22T13:20:18;5.24;64.76
66722;SHT31;53633;49.932;10.884;2023-11-22T13:22:44;4.97;66.08
66722;SHT31;53633;49.932;10.884;2023-11-22T13:25:12;5.01;65.49
66722;SHT31;53633;49.932;10.884;2023-11-22T13:27:39;5.00;65.66
66722;SHT31;53633;49.932;10.884;2023-11-22T13:30:06;5.01;66.32
66722;SHT31;53633;49.932;10.884;2023-11-22T13:32:33;5.03;65.74
66722;SHT31;53633;49.932;10.884;2023-11-22T13:35:00;4.97;66.38
66722;SHT31;53633;49.932;10.884;2023-11-22T13:37:27;5.06;66.85
66722;SHT31;53633;49.932;10.884;2023-11-22T13:39:53;5.09;67.22
66722;SHT31;53633;49.932;10.884;2023-11-22T13:42:21;4.99;67.02
66722;SHT31;53633;49.932;10.884;2023-11-22T13:44:48;5.07;67.43
66722;SHT31;53633;49.932;10.884;2023-11-22T13:47:15;4.97;67.19
66722;SHT31;53633;49.932;10.884;2023-11-22T13:49:42;4.99;67.03
66722;SHT31;53633;49.932;10.884;2023-11-22T13:52:08;5.03;66.96
66722;SHT31;53633;49.932;10.884;2023-11-22T13:54:35;5.04;66.98
66722;SHT31;53633;49.932;10.884;2023-11-22T13:57:02;5.04;67.24
66722;SHT31;53633;49.932;10.884;2023-11-22T13:59:30;5.07;66.63
66722;SHT31;53633;49.932;10.884;2023-11-22T14:01:56;5.09;66.88
66722;SHT31;53633;49.932;10.884;2023-11-22T14:04:23;5.11;66.37
66722;SHT31;53633;49.932;10.884;2023-11-22T14:06:50;5.03;66.83
66722;SHT31;53633;49.932;10.884;2023-11-22T14:09:17;4.99;67.40
66722;SHT31;53633;49.932;10.884;2023-11-22T14:11:43;5.00;67.61
66722;SHT31;53633;49.932;10.884;2023-11-22T14:14:10;4.97;67.43
66722;SHT31;53633;49.932;10.884;2023-11-22T14:16:41;4.94;66.77
66722;SHT31;53633;49.932;10.884;2023-11-22T14:19:08;4.87;67.48
66722;SHT31;53633;49.932;10.884;2023-11-22T14:21:34;4.83;67.51
66722;SHT31;53633;49.932;10.884;2023-11-22T14:24:01;4.77;67.58
66722;SHT31;53633;49.932;10.884;2023-11-22T14:26:28;4.73;68.46
66722;SHT31;53633;49.932;10.884;2023-11-22T14:28:54;4.66;67.81
66722;SHT31;53633;49.932;10.884;2023-11-22T14:31:21;4.51;68.00
66722;SHT31;53633;49.932;10.884;2023-11-22T14:33:50;4.41;68.15
66722;SHT31;53633;49.932;10.884;2023-11-22T14:36:17;4.45;68.75
66722;SHT31;53633;49.932;10.884;2023-11-22T14:38:44;4.49;68.43
66722;SHT31;53633;49.932;10.884;2023-11-22T14:41:10;4.48;68.30
66722;SHT31;53633;49.932;10.884;2023-11-22T14:43:37;4.42;68.30
66722;SHT31;53633;49.932;10.884;2023-11-22T14:46:04;4.42;68.37
66722;SHT31;53633;49.932;10.884;2023-11-22T14:48:31;4.44;68.47
66722;SHT31;53633;49.932;10.884;2023-11-22T14:50:59;4.40;68.53
66722;SHT31;53633;49.932;10.884;2023-11-22T14:53:26;4.28;68.74
66722;SHT31;53633;49.932;10.884;2023-11-22T14:55:53;4.30;69.56
66722;SHT31;53633;49.932;10.884;2023-11-22T14:58:19;4.28;69.31
66722;SHT31;53633;49.932;10.884;2023-11-22T15:00:46;4.33;69.55
66722;SHT31;53633;49.932;10.884;2023-11-22T15:03:12;4.30;69.28
66722;SHT31;53633;49.932;10.884;2023-11-22T15:05:39;4.24;68.79
66722;SHT31;53633;49.932;10.884;2023-11-22T15:08:07;4.14;68.99
66722;SHT31;53633;49.932;10.884;2023-11-22T15:10:34;4.06;69.02
66722;SHT31;53633;49.932;10.884;2023-11-22T15:13:01;4.06;69.45
66722;SHT31;53633;49.932;10.884;2023-11-22T15:15:28;4.06;69.66
66722;SHT31;53633;49.932;10.884;2023-11-22T15:17:54;4.13;69.66
66722;SHT31;53633;49.932;10.884;2023-11-22T15:20:22;4.25;69.65
66722;SHT31;53633;49.932;10.884;2023-11-22T15:22:49;4.24;69.53
66722;SHT31;53633;49.932;10.884;2023-11-22T15:25:17;4.21;69.55
66722;SHT31;53633;49.932;10.884;2023-11-22T15:27:43;4.21;69.76
66722;SHT31;53633;49.932;10.884;2023-11-22T15:30:10;4.22;69.71